Lamkin, Louisiana
Current Conditions -  °F | °C
As of 10:53 AM on Thursday 27 Nov 2014 (Local Time) from KMLU Reporting Station
Clear Clear  
Wind Chill: 45°   Ceiling: Unl
Heat Index: 49°   Visibility: 10mi
Dew Point: 30°   Wind: 8mph
Humidity: 48%   Direction: 350°N
Pressure: 30.56"   Gusts: NA
Location:  32.5324°N, 92.1046°W
Report Text: KMLU 271653Z 35007KT 10SM CLR 09/M01 A3056 RMK AO2 SLP347 T00941011
Loading
Personal Weather Stations






























Interactive Weather Map New forecast layout! Learn more

10-Day Weather Forecast

Advertisements
Track Severe Weather on mobile